createdAt,value
2023-11-09T00:02:06.683Z,79.96
2023-11-09T00:04:46.877Z,79.78
2023-11-09T00:07:34.281Z,79.68
2023-11-09T00:10:21.511Z,79.56
2023-11-09T00:13:00.064Z,79.00
2023-11-09T00:15:43.299Z,79.12
2023-11-09T00:18:23.337Z,79.38
2023-11-09T00:21:10.120Z,79.16
2023-11-09T00:24:03.724Z,79.26
2023-11-09T00:26:32.516Z,79.28
2023-11-09T00:29:02.019Z,78.95
2023-11-09T00:31:42.398Z,77.91
2023-11-09T00:34:14.875Z,77.92
2023-11-09T00:37:04.270Z,77.85
2023-11-09T00:39:38.294Z,77.30
2023-11-09T00:42:08.809Z,77.43
2023-11-09T00:44:38.694Z,77.46
2023-11-09T00:47:08.449Z,77.60
2023-11-09T00:49:48.675Z,77.59
2023-11-09T00:52:18.539Z,77.36
2023-11-09T00:54:50.906Z,77.50
2023-11-09T00:57:18.846Z,77.81
2023-11-09T00:59:48.150Z,77.83
2023-11-09T01:02:22.348Z,77.97
2023-11-09T01:04:59.073Z,77.78
2023-11-09T01:07:30.526Z,77.86
2023-11-09T01:10:02.396Z,78.31
2023-11-09T01:12:38.851Z,78.23
2023-11-09T01:15:08.900Z,78.44
2023-11-09T01:17:40.184Z,78.90
2023-11-09T01:20:14.806Z,79.05
2023-11-09T01:22:44.555Z,79.06
2023-11-09T01:25:16.630Z,79.24
2023-11-09T01:27:45.375Z,79.01
2023-11-09T01:30:17.452Z,79.10
2023-11-09T01:32:44.789Z,79.65
2023-11-09T01:35:14.185Z,79.49
2023-11-09T01:37:42.523Z,79.31
2023-11-09T01:40:11.569Z,79.67
2023-11-09T01:42:39.169Z,79.46
2023-11-09T01:45:12.554Z,79.78
2023-11-09T01:47:40.864Z,79.83
2023-11-09T01:50:14.020Z,80.18
2023-11-09T01:52:48.269Z,79.92
2023-11-09T01:55:21.875Z,80.05
2023-11-09T01:57:56.985Z,80.10
2023-11-09T02:00:29.321Z,80.36
2023-11-09T02:03:00.242Z,80.17
2023-11-09T02:05:27.879Z,80.31
2023-11-09T02:07:58.235Z,80.65
2023-11-09T02:10:26.342Z,80.98
2023-11-09T02:12:57.745Z,80.77
2023-11-09T02:15:34.206Z,81.50
2023-11-09T02:18:01.774Z,81.69
2023-11-09T02:20:48.059Z,81.50
2023-11-09T02:23:24.523Z,81.87
2023-11-09T02:25:53.748Z,82.08
2023-11-09T02:28:26.129Z,82.51
2023-11-09T02:30:55.414Z,82.63
2023-11-09T02:33:35.143Z,82.99
2023-11-09T02:36:05.431Z,82.98
2023-11-09T02:38:41.325Z,82.95
2023-11-09T02:41:12.453Z,83.31
2023-11-09T02:43:44.643Z,83.45
2023-11-09T02:46:14.110Z,83.71
2023-11-09T02:48:44.233Z,83.74
2023-11-09T02:51:11.856Z,83.57
2023-11-09T02:53:44.846Z,83.45
2023-11-09T02:56:15.645Z,83.87
2023-11-09T02:58:48.081Z,83.69
2023-11-09T03:01:20.804Z,84.18
2023-11-09T03:04:24.075Z,84.01
2023-11-09T03:06:54.220Z,83.93
2023-11-09T03:09:23.928Z,84.33
2023-11-09T03:11:53.101Z,84.43
2023-11-09T03:14:27.256Z,84.45
2023-11-09T03:16:56.317Z,84.43
2023-11-09T03:19:29.273Z,84.35
2023-11-09T03:22:02.641Z,84.17
2023-11-09T03:24:35.352Z,84.54
2023-11-09T03:27:07.213Z,83.99
2023-11-09T03:29:40.087Z,84.16
2023-11-09T03:32:11.486Z,84.04
2023-11-09T03:34:44.256Z,83.48
2023-11-09T03:40:05.927Z,83.89
2023-11-09T03:42:35.411Z,83.48
2023-11-09T03:45:07.379Z,83.61
2023-11-09T03:47:39.075Z,83.58
2023-11-09T03:52:56.923Z,83.36
2023-11-09T03:55:34.309Z,83.37
2023-11-09T03:58:10.630Z,83.33
2023-11-09T04:03:24.493Z,82.81
2023-11-09T04:06:07.736Z,82.58
2023-11-09T04:08:36.116Z,82.32
2023-11-09T04:11:06.456Z,82.32
2023-11-09T04:16:28.070Z,81.77
2023-11-09T04:19:01.642Z,81.72
2023-11-09T04:21:32.130Z,81.22
2023-11-09T04:24:09.287Z,80.90
2023-11-09T04:26:39.001Z,80.74
2023-11-09T04:29:12.336Z,80.66
2023-11-09T04:31:45.355Z,80.88
2023-11-09T04:34:13.135Z,80.17
2023-11-09T04:36:54.633Z,80.18
2023-11-09T04:39:38.146Z,80.23
2023-11-09T04:42:10.527Z,79.71
2023-11-09T04:44:41.895Z,79.46
2023-11-09T04:47:31.950Z,79.75
2023-11-09T04:50:03.889Z,79.58
2023-11-09T04:52:32.370Z,79.68
2023-11-09T04:55:16.265Z,79.40
2023-11-09T04:58:15.337Z,79.85
2023-11-09T05:01:05.098Z,79.89
2023-11-09T05:04:30.455Z,79.20
2023-11-09T05:07:09.802Z,79.65
2023-11-09T05:09:48.586Z,79.55
2023-11-09T05:12:26.515Z,79.22
2023-11-09T05:15:21.113Z,79.45
2023-11-09T05:18:39.860Z,78.86
2023-11-09T05:21:45.250Z,79.04
2023-11-09T05:24:39.687Z,78.48
2023-11-09T05:27:24.578Z,78.46
2023-11-09T05:29:59.289Z,78.49
2023-11-09T05:32:32.082Z,78.61
2023-11-09T05:35:19.708Z,78.75
2023-11-09T05:38:24.053Z,78.71
2023-11-09T05:43:58.566Z,78.34
2023-11-09T05:47:17.572Z,78.74
2023-11-09T05:50:15.605Z,78.51
2023-11-09T05:54:14.325Z,78.37
2023-11-09T06:03:50.091Z,77.79
2023-11-09T06:06:29.654Z,77.30
2023-11-09T06:09:45.549Z,77.42
2023-11-09T06:15:37.799Z,77.20
2023-11-09T06:18:17.128Z,77.14
2023-11-09T06:21:39.407Z,76.48
2023-11-09T06:24:31.623Z,76.44
2023-11-09T06:32:49.645Z,75.35
2023-11-09T06:35:34.317Z,75.08
2023-11-09T06:38:05.465Z,75.16
2023-11-09T06:40:39.613Z,75.10
2023-11-09T06:43:31.731Z,74.82
2023-11-09T06:46:43.660Z,74.68
2023-11-09T06:49:20.377Z,74.64
2023-11-09T06:52:19.061Z,74.89
2023-11-09T06:55:06.000Z,74.63
2023-11-09T06:57:58.930Z,74.67
2023-11-09T07:00:55.155Z,74.64
2023-11-09T07:03:41.091Z,75.06
2023-11-09T07:06:30.084Z,74.94
2023-11-09T07:09:11.127Z,74.58
2023-11-09T07:12:56.320Z,74.28
2023-11-09T07:16:29.405Z,74.73
2023-11-09T07:19:07.828Z,74.09
2023-11-09T07:22:17.819Z,74.20
2023-11-09T07:25:47.958Z,73.73
2023-11-09T07:28:27.743Z,73.45
2023-11-09T07:31:25.613Z,73.37
2023-11-09T07:34:24.679Z,72.72
2023-11-09T07:37:28.808Z,72.13
2023-11-09T07:40:38.185Z,71.81
2023-11-09T07:43:13.010Z,71.79
2023-11-09T07:46:59.780Z,71.75
2023-11-09T07:50:01.066Z,71.59
2023-11-09T07:52:54.735Z,71.29
2023-11-09T07:56:55.186Z,71.26
2023-11-09T08:00:07.608Z,70.48
2023-11-09T08:03:54.765Z,69.92
2023-11-09T08:07:01.475Z,69.97
2023-11-09T08:10:59.273Z,69.95
2023-11-09T08:13:47.748Z,68.68
2023-11-09T08:17:07.353Z,68.68
2023-11-09T08:20:25.438Z,68.41
2023-11-09T08:23:22.723Z,66.59
2023-11-09T08:29:41.996Z,65.13
2023-11-09T08:32:23.697Z,65.75
2023-11-09T08:35:25.619Z,65.38
2023-11-09T08:41:57.676Z,64.38
2023-11-09T08:45:03.300Z,64.26
2023-11-09T08:48:17.637Z,63.62
2023-11-09T08:55:25.432Z,62.45
2023-11-09T08:59:19.523Z,62.63
2023-11-09T09:02:13.379Z,60.70
2023-11-09T09:05:01.249Z,60.77
2023-11-09T09:08:28.523Z,60.63
2023-11-09T09:11:24.476Z,60.09
2023-11-09T09:14:14.524Z,60.03
2023-11-09T09:16:55.971Z,58.27
2023-11-09T09:19:59.305Z,54.55
2023-11-09T09:22:57.593Z,47.91
2023-11-09T09:32:40.225Z,41.90
2023-11-09T09:35:52.304Z,41.13
2023-11-09T09:43:24.136Z,40.26
2023-11-09T09:46:47.196Z,40.34
2023-11-09T09:50:23.389Z,41.56
2023-11-09T09:54:19.730Z,42.10
2023-11-09T09:57:51.387Z,44.06
2023-11-09T10:01:19.566Z,44.96
2023-11-09T10:04:08.766Z,44.55
2023-11-09T10:07:10.887Z,43.91
2023-11-09T10:10:15.963Z,44.64
2023-11-09T10:13:49.200Z,44.68
2023-11-09T10:16:54.810Z,45.31
2023-11-09T10:19:52.396Z,44.94
2023-11-09T10:22:54.984Z,45.46
2023-11-09T10:26:13.991Z,45.56
2023-11-09T10:33:46.135Z,46.00
2023-11-09T10:37:27.898Z,45.32
2023-11-09T10:48:37.224Z,45.12
2023-11-09T10:52:07.434Z,44.90
2023-11-09T10:54:56.171Z,45.13
2023-11-09T10:57:56.774Z,44.68
2023-11-09T11:00:56.687Z,43.67
2023-11-09T11:03:56.075Z,43.15
2023-11-09T11:06:52.749Z,43.06
2023-11-09T11:10:44.423Z,43.89
2023-11-09T11:13:24.224Z,43.95
2023-11-09T11:20:01.821Z,43.45
2023-11-09T11:22:57.144Z,43.87
2023-11-09T11:25:55.269Z,44.24
2023-11-09T11:28:34.704Z,44.07
2023-11-09T11:34:51.554Z,43.36
2023-11-09T11:38:54.904Z,44.05
2023-11-09T11:42:31.896Z,44.48
2023-11-09T11:45:14.369Z,45.21
2023-11-09T11:47:55.274Z,45.14
2023-11-09T11:50:49.571Z,45.44
2023-11-09T11:53:56.755Z,45.79
2023-11-09T11:56:55.843Z,45.54
2023-11-09T12:00:54.182Z,46.36
2023-11-09T12:06:44.739Z,47.27
2023-11-09T12:10:14.184Z,46.97
2023-11-09T12:13:41.401Z,47.20
2023-11-09T12:16:25.313Z,47.09
2023-11-09T12:19:26.124Z,47.33
2023-11-09T12:22:18.706Z,46.20
2023-11-09T12:25:06.972Z,46.44
2023-11-09T12:28:20.884Z,46.80
2023-11-09T12:30:53.450Z,46.99
2023-11-09T12:34:21.010Z,47.15
2023-11-09T12:37:57.717Z,46.87
2023-11-09T12:40:41.794Z,46.40
2023-11-09T12:43:19.470Z,46.26
2023-11-09T12:47:01.767Z,46.82
2023-11-09T12:50:42.182Z,46.52
2023-11-09T12:54:48.456Z,46.53
2023-11-09T12:58:27.992Z,46.98
2023-11-09T13:01:17.045Z,46.97
2023-11-09T13:04:04.848Z,47.83
2023-11-09T13:07:19.492Z,47.94
2023-11-09T13:10:23.817Z,48.07
2023-11-09T13:13:15.903Z,48.31
2023-11-09T13:15:58.612Z,48.24
2023-11-09T13:18:33.780Z,48.62
2023-11-09T13:21:25.771Z,49.06
2023-11-09T13:28:37.721Z,48.77
2023-11-09T13:32:04.244Z,48.82
2023-11-09T13:34:53.796Z,48.96
2023-11-09T13:37:33.396Z,49.33
2023-11-09T13:40:28.197Z,48.93
2023-11-09T13:43:36.416Z,49.23
2023-11-09T13:46:24.317Z,49.67
2023-11-09T13:52:50.027Z,50.05
2023-11-09T13:59:17.846Z,50.46
2023-11-09T14:05:33.676Z,50.96
2023-11-09T14:08:28.852Z,51.42
2023-11-09T14:11:29.033Z,51.67
2023-11-09T14:17:38.140Z,52.08
2023-11-09T14:21:30.878Z,52.02
2023-11-09T14:25:01.144Z,51.91
2023-11-09T14:27:34.094Z,52.13
2023-11-09T14:38:20.046Z,51.12
2023-11-09T14:41:23.044Z,51.49
2023-11-09T14:56:15.123Z,51.56
2023-11-09T14:59:17.175Z,52.00
2023-11-09T15:02:02.034Z,52.59
2023-11-09T15:04:48.460Z,52.51
2023-11-09T15:07:27.002Z,52.83
2023-11-09T15:11:00.117Z,52.87
2023-11-09T15:13:58.291Z,53.27
2023-11-09T15:17:09.774Z,52.79
2023-11-09T15:20:04.938Z,53.60
2023-11-09T15:22:57.203Z,53.74
2023-11-09T15:25:56.457Z,53.72
2023-11-09T15:28:47.521Z,54.30
2023-11-09T15:31:31.066Z,55.01
2023-11-09T15:34:15.959Z,55.27
2023-11-09T15:37:16.992Z,55.81
2023-11-09T15:41:08.219Z,55.86
2023-11-09T15:46:20.701Z,56.37
2023-11-09T15:49:12.396Z,56.90
2023-11-09T15:52:11.092Z,57.50
2023-11-09T15:54:55.031Z,57.51
2023-11-09T16:01:36.871Z,57.96
2023-11-09T16:05:22.259Z,59.33
2023-11-09T16:13:39.521Z,60.68
2023-11-09T16:16:31.935Z,60.90
2023-11-09T16:20:29.517Z,60.93
2023-11-09T16:23:17.030Z,61.65
2023-11-09T16:27:10.543Z,61.63
2023-11-09T16:32:53.629Z,62.00
2023-11-09T16:36:08.659Z,61.92
2023-11-09T16:38:54.336Z,62.00
2023-11-09T16:42:11.667Z,62.28
2023-11-09T16:45:05.240Z,62.00
2023-11-09T16:47:52.639Z,62.39
2023-11-09T16:51:18.912Z,62.68
2023-11-09T16:54:33.372Z,63.43
2023-11-09T16:57:16.379Z,63.73
2023-11-09T17:00:21.324Z,63.34
2023-11-09T17:07:14.195Z,63.44
2023-11-09T17:10:48.979Z,63.67
2023-11-09T17:14:23.379Z,64.30
2023-11-09T17:17:38.896Z,64.27
2023-11-09T17:20:22.047Z,63.90
2023-11-09T17:23:09.210Z,64.54
2023-11-09T17:26:05.302Z,64.52
2023-11-09T17:28:35.775Z,65.18
2023-11-09T17:31:22.401Z,65.56
2023-11-09T17:34:06.041Z,65.75
2023-11-09T17:36:44.630Z,66.45
2023-11-09T17:39:46.893Z,66.77
2023-11-09T17:42:47.595Z,66.84
2023-11-09T17:45:45.009Z,67.21
2023-11-09T17:48:47.338Z,67.63
2023-11-09T17:51:36.558Z,68.36
2023-11-09T18:01:17.209Z,69.62
2023-11-09T18:04:33.417Z,69.39
2023-11-09T18:07:08.199Z,69.87
2023-11-09T18:09:47.998Z,71.14
2023-11-09T18:12:54.515Z,71.04
2023-11-09T18:16:01.645Z,71.22
2023-11-09T18:18:39.360Z,71.58
2023-11-09T18:21:22.009Z,71.80
2023-11-09T18:24:21.371Z,71.31
2023-11-09T18:26:58.444Z,71.73
2023-11-09T18:30:11.872Z,71.94
2023-11-09T18:32:49.617Z,71.33
2023-11-09T18:35:19.129Z,71.73
2023-11-09T18:37:51.160Z,71.33
2023-11-09T18:40:18.564Z,71.58
2023-11-09T18:45:39.620Z,71.72
2023-11-09T18:48:07.313Z,71.88
2023-11-09T18:53:08.041Z,72.41
2023-11-09T18:55:35.349Z,72.20
2023-11-09T18:58:28.218Z,72.21
2023-11-09T19:00:58.322Z,72.24
2023-11-09T19:06:23.426Z,73.90
2023-11-09T19:09:29.116Z,74.68
2023-11-09T19:15:33.017Z,75.87
2023-11-09T19:18:53.957Z,75.29
2023-11-09T19:24:48.399Z,75.24
2023-11-09T19:27:42.718Z,75.35
2023-11-09T19:30:38.415Z,76.08
2023-11-09T19:33:22.791Z,76.48
2023-11-09T19:36:39.115Z,76.22
2023-11-09T19:39:23.845Z,76.71
2023-11-09T19:42:24.950Z,76.85
2023-11-09T19:45:01.405Z,77.17
2023-11-09T19:48:01.289Z,77.13
2023-11-09T19:50:44.132Z,77.64
2023-11-09T19:53:29.697Z,77.45
2023-11-09T19:56:05.458Z,77.67
2023-11-09T19:58:59.192Z,77.58
2023-11-09T20:01:53.387Z,77.83
2023-11-09T20:04:36.303Z,77.95
2023-11-09T20:07:17.642Z,77.92
2023-11-09T20:10:14.783Z,78.10
2023-11-09T20:13:51.240Z,77.83
2023-11-09T20:19:23.018Z,78.21
2023-11-09T20:22:05.549Z,78.31
2023-11-09T20:24:42.141Z,78.51
2023-11-09T20:27:19.198Z,78.64
2023-11-09T20:30:07.987Z,78.69
2023-11-09T20:33:08.659Z,79.16
2023-11-09T20:40:18.449Z,79.83
2023-11-09T20:42:55.831Z,79.84
2023-11-09T20:45:27.148Z,79.89
2023-11-09T20:47:55.530Z,79.96
2023-11-09T20:50:25.377Z,79.65
2023-11-09T21:02:06.497Z,79.90
2023-11-09T21:04:44.760Z,79.57
2023-11-09T21:07:20.800Z,79.54
2023-11-09T21:13:09.557Z,79.54
2023-11-09T21:16:10.974Z,79.92
2023-11-09T21:19:08.382Z,79.88
2023-11-09T21:23:01.524Z,80.07
2023-11-09T21:26:02.040Z,80.86
2023-11-09T21:29:07.290Z,80.36
2023-11-09T21:34:48.020Z,80.63
2023-11-09T21:37:27.633Z,80.53
2023-11-09T21:40:10.003Z,80.39
2023-11-09T21:46:05.319Z,80.41
2023-11-09T21:48:44.345Z,80.44
2023-11-09T21:51:16.335Z,80.67
2023-11-09T21:54:07.774Z,80.42
2023-11-09T21:56:46.414Z,80.36
2023-11-09T21:59:16.916Z,80.74
2023-11-09T22:01:44.525Z,80.89
2023-11-09T22:04:12.307Z,81.08
2023-11-09T22:06:39.672Z,81.23
2023-11-09T22:09:08.790Z,80.80
2023-11-09T22:11:37.024Z,81.00
2023-11-09T22:14:10.396Z,80.90
2023-11-09T22:16:42.092Z,80.78
2023-11-09T22:19:10.217Z,81.02
2023-11-09T22:21:37.865Z,81.38
2023-11-09T22:24:06.829Z,81.32
2023-11-09T22:26:34.611Z,81.22
2023-11-09T22:29:02.215Z,80.98
2023-11-09T22:31:29.928Z,80.93
2023-11-09T22:33:58.662Z,80.70
2023-11-09T22:36:26.159Z,80.89
2023-11-09T22:38:53.719Z,80.59
2023-11-09T22:41:20.847Z,80.31
2023-11-09T22:43:48.655Z,80.51
2023-11-09T22:46:15.877Z,80.71
2023-11-09T22:48:43.448Z,80.62
2023-11-09T22:51:10.769Z,80.57
2023-11-09T22:53:39.349Z,80.79
2023-11-09T22:56:07.617Z,80.77
2023-11-09T22:58:35.193Z,81.03
2023-11-09T23:01:05.452Z,80.86
2023-11-09T23:03:34.051Z,81.24
2023-11-09T23:06:01.809Z,81.31
2023-11-09T23:08:31.945Z,81.29
2023-11-09T23:10:59.610Z,81.31
2023-11-09T23:13:29.502Z,81.52
2023-11-09T23:15:56.757Z,81.58
2023-11-09T23:18:24.195Z,81.80
2023-11-09T23:20:53.235Z,82.48
2023-11-09T23:23:20.873Z,82.14
2023-11-09T23:25:48.116Z,82.02
2023-11-09T23:28:15.661Z,82.01
2023-11-09T23:30:44.686Z,81.63
2023-11-09T23:33:12.233Z,82.23
2023-11-09T23:35:39.345Z,81.98
2023-11-09T23:38:06.807Z,82.41
2023-11-09T23:40:33.914Z,82.17
2023-11-09T23:43:01.323Z,82.11
2023-11-09T23:45:28.919Z,82.17
2023-11-09T23:47:56.499Z,82.12
2023-11-09T23:50:23.581Z,82.27
2023-11-09T23:52:51.076Z,82.33
2023-11-09T23:55:18.318Z,82.24
2023-11-09T23:57:46.513Z,82.08
